createdAt,value
2019-02-18T00:01:47.983Z,3.17
2019-02-18T00:04:20.601Z,3.33
2019-02-18T00:06:54.441Z,3.17
2019-02-18T00:09:29.310Z,3.20
2019-02-18T00:12:01.854Z,3.07
2019-02-18T00:14:35.379Z,3.00
2019-02-18T00:17:09.252Z,3.17
2019-02-18T00:19:41.665Z,2.80
2019-02-18T00:22:14.439Z,3.10
2019-02-18T00:24:47.040Z,2.27
2019-02-18T00:27:19.782Z,2.10
2019-02-18T00:29:52.285Z,2.23
2019-02-18T00:32:25.264Z,2.20
2019-02-18T00:34:59.891Z,2.80
2019-02-18T00:37:32.366Z,2.83
2019-02-18T00:40:05.187Z,3.03
2019-02-18T00:42:37.723Z,2.50
2019-02-18T00:45:13.888Z,2.50
2019-02-18T00:47:48.157Z,2.87
2019-02-18T00:50:20.779Z,2.53
2019-02-18T00:52:53.261Z,2.90
2019-02-18T00:55:26.243Z,2.60
2019-02-18T00:57:58.718Z,2.63
2019-02-18T01:00:33.231Z,2.53
2019-02-18T01:03:07.776Z,2.47
2019-02-18T01:05:40.130Z,2.23
2019-02-18T01:08:12.454Z,2.40
2019-02-18T01:10:44.690Z,2.30
2019-02-18T01:13:17.259Z,2.40
2019-02-18T01:15:50.267Z,2.47
2019-02-18T01:18:22.818Z,2.47
2019-02-18T01:20:57.174Z,2.30
2019-02-18T01:23:29.640Z,2.60
2019-02-18T01:26:02.603Z,2.43
2019-02-18T01:28:35.591Z,2.43
2019-02-18T01:31:08.375Z,2.80
2019-02-18T01:33:41.741Z,3.17
2019-02-18T01:36:14.244Z,3.40
2019-02-18T01:38:47.230Z,3.20
2019-02-18T01:41:19.924Z,2.80
2019-02-18T01:43:52.384Z,2.80
2019-02-18T01:46:27.833Z,3.40
2019-02-18T01:49:02.259Z,3.37
2019-02-18T01:51:34.826Z,3.17
2019-02-18T01:54:07.336Z,2.80
2019-02-18T01:56:39.943Z,2.80
2019-02-18T01:59:12.663Z,2.33
2019-02-18T02:01:45.649Z,2.10
2019-02-18T02:04:18.329Z,1.97
2019-02-18T02:06:51.843Z,1.90
2019-02-18T02:09:24.194Z,2.70
2019-02-18T02:11:56.851Z,2.63
2019-02-18T02:14:29.297Z,2.97
2019-02-18T02:17:01.829Z,2.40
2019-02-18T02:19:34.283Z,2.37
2019-02-18T02:22:06.782Z,2.00
2019-02-18T02:24:40.592Z,2.30
2019-02-18T02:27:13.179Z,2.00
2019-02-18T02:29:46.691Z,1.73
2019-02-18T02:32:18.942Z,2.50
2019-02-18T02:34:52.335Z,3.43
2019-02-18T02:37:24.730Z,3.87
2019-02-18T02:39:57.284Z,3.60
2019-02-18T02:42:29.771Z,3.53
2019-02-18T02:45:02.269Z,2.97
2019-02-18T02:47:34.810Z,2.80
2019-02-18T02:50:07.284Z,2.80
2019-02-18T02:52:39.636Z,2.43
2019-02-18T02:55:12.128Z,2.73
2019-02-18T02:57:44.641Z,2.60
2019-02-18T03:00:18.417Z,3.23
2019-02-18T03:02:50.929Z,2.40
2019-02-18T03:05:23.359Z,2.20
2019-02-18T03:07:55.737Z,1.70
2019-02-18T03:10:28.300Z,3.07
2019-02-18T03:13:00.766Z,2.77
2019-02-18T03:15:33.660Z,2.63
2019-02-18T03:18:06.169Z,2.30
2019-02-18T03:20:38.676Z,2.40
2019-02-18T03:23:11.209Z,2.43
2019-02-18T03:25:43.782Z,2.40
2019-02-18T03:28:29.964Z,2.20
2019-02-18T03:31:04.195Z,2.20
2019-02-18T03:33:38.429Z,2.70
2019-02-18T03:36:11.086Z,2.27
2019-02-18T03:38:43.358Z,2.60
2019-02-18T03:41:16.138Z,2.40
2019-02-18T03:43:49.651Z,2.17
2019-02-18T03:46:22.243Z,2.90
2019-02-18T03:48:54.738Z,4.80
2019-02-18T03:51:27.590Z,3.80
2019-02-18T03:54:00.190Z,3.37
2019-02-18T03:56:32.845Z,2.57
2019-02-18T03:59:06.392Z,1.97
2019-02-18T04:01:40.240Z,1.70
2019-02-18T04:04:13.105Z,1.70
2019-02-18T04:06:45.466Z,1.80
2019-02-18T04:09:18.484Z,1.50
2019-02-18T04:11:52.073Z,1.60
2019-02-18T04:14:24.550Z,1.90
2019-02-18T04:16:57.250Z,2.10
2019-02-18T04:19:29.849Z,2.00
2019-02-18T04:22:02.214Z,2.00
2019-02-18T04:24:34.883Z,2.10
2019-02-18T04:27:07.861Z,2.03
2019-02-18T04:29:40.692Z,1.90
2019-02-18T04:32:13.629Z,1.90
2019-02-18T04:34:47.067Z,2.00
2019-02-18T04:37:20.116Z,2.30
2019-02-18T04:39:54.030Z,1.93
2019-02-18T04:42:28.243Z,2.00
2019-02-18T04:45:01.127Z,1.73
2019-02-18T04:47:33.800Z,1.90
2019-02-18T04:50:06.084Z,2.00
2019-02-18T04:52:39.410Z,1.77
2019-02-18T04:55:13.791Z,1.70
2019-02-18T04:57:46.576Z,2.43
2019-02-18T05:00:19.885Z,2.13
2019-02-18T05:02:53.209Z,1.80
2019-02-18T05:05:25.771Z,1.90
2019-02-18T05:07:58.415Z,1.93
2019-02-18T05:10:31.018Z,1.83
2019-02-18T05:13:03.419Z,1.97
2019-02-18T05:15:35.896Z,2.23
2019-02-18T05:18:08.631Z,2.30
2019-02-18T05:20:41.142Z,2.90
2019-02-18T05:23:15.113Z,2.47
2019-02-18T05:25:47.891Z,1.53
2019-02-18T05:28:20.494Z,2.63
2019-02-18T05:30:53.034Z,2.60
2019-02-18T05:33:25.845Z,2.87
2019-02-18T05:36:00.497Z,2.27
2019-02-18T05:38:33.136Z,2.13
2019-02-18T05:41:05.732Z,3.27
2019-02-18T05:43:38.596Z,2.40
2019-02-18T05:46:11.010Z,4.20
2019-02-18T05:48:44.073Z,3.40
2019-02-18T05:51:17.156Z,2.87
2019-02-18T05:53:49.516Z,2.60
2019-02-18T05:56:21.875Z,5.43
2019-02-18T05:58:54.539Z,4.97
2019-02-18T06:01:30.284Z,4.17
2019-02-18T06:04:04.657Z,3.63
2019-02-18T06:06:37.234Z,3.00
2019-02-18T06:09:10.518Z,2.70
2019-02-18T06:11:43.301Z,3.13
2019-02-18T06:14:15.968Z,2.70
2019-02-18T06:16:48.385Z,3.47
2019-02-18T06:19:20.833Z,3.10
2019-02-18T06:21:53.482Z,2.70
2019-02-18T06:24:26.189Z,2.93
2019-02-18T06:26:58.776Z,4.37
2019-02-18T06:29:31.138Z,4.07
2019-02-18T06:32:04.656Z,3.90
2019-02-18T06:34:37.157Z,3.97
2019-02-18T06:37:09.893Z,3.83
2019-02-18T06:39:42.365Z,3.70
2019-02-18T06:42:15.359Z,3.70
2019-02-18T06:44:49.529Z,3.07
2019-02-18T06:47:22.453Z,3.00
2019-02-18T06:49:54.822Z,3.17
2019-02-18T06:52:27.303Z,4.93
2019-02-18T06:54:59.679Z,3.17
2019-02-18T06:57:39.735Z,3.67
2019-02-18T07:00:15.283Z,3.10
2019-02-18T07:02:50.055Z,3.43
2019-02-18T07:05:24.534Z,4.70
2019-02-18T07:08:13.791Z,3.80
2019-02-18T07:10:48.219Z,3.77
2019-02-18T07:13:20.793Z,4.67
2019-02-18T07:15:53.884Z,4.27
2019-02-18T07:18:26.459Z,3.70
2019-02-18T07:20:59.034Z,3.93
2019-02-18T07:23:31.534Z,5.00
2019-02-18T07:26:04.088Z,4.20
2019-02-18T07:28:36.515Z,4.83
2019-02-18T07:31:09.040Z,5.70
2019-02-18T07:33:41.618Z,14.27
2019-02-18T07:36:14.089Z,10.20
2019-02-18T07:38:46.463Z,7.93
2019-02-18T07:41:19.191Z,7.40
2019-02-18T07:43:51.555Z,6.30
2019-02-18T07:46:23.823Z,5.70
2019-02-18T07:48:56.055Z,5.77
2019-02-18T07:51:28.496Z,6.13
2019-02-18T07:54:01.415Z,5.67
2019-02-18T07:56:33.794Z,4.90
2019-02-18T07:59:07.312Z,4.60
2019-02-18T08:01:39.768Z,7.03
2019-02-18T08:04:12.165Z,4.63
2019-02-18T08:06:44.631Z,4.40
2019-02-18T08:09:17.087Z,4.43
2019-02-18T08:11:49.586Z,4.37
2019-02-18T08:14:22.034Z,4.17
2019-02-18T08:16:55.740Z,5.37
2019-02-18T08:19:29.033Z,5.67
2019-02-18T08:22:01.353Z,4.53
2019-02-18T08:24:33.780Z,5.17
2019-02-18T08:27:06.057Z,3.70
2019-02-18T08:29:38.448Z,4.03
2019-02-18T08:32:11.020Z,3.33
2019-02-18T08:34:43.679Z,3.20
2019-02-18T08:37:16.122Z,3.10
2019-02-18T08:39:48.627Z,3.23
2019-02-18T08:42:21.430Z,4.33
2019-02-18T08:44:53.990Z,4.27
2019-02-18T08:47:26.348Z,3.63
2019-02-18T08:49:58.938Z,6.93
2019-02-18T08:52:31.308Z,3.60
2019-02-18T08:55:03.889Z,3.97
2019-02-18T08:57:36.466Z,2.70
2019-02-18T09:00:10.680Z,2.97
2019-02-18T09:02:43.337Z,3.43
2019-02-18T09:05:15.896Z,4.80
2019-02-18T09:07:48.620Z,3.73
2019-02-18T09:10:21.095Z,2.93
2019-02-18T09:12:53.469Z,3.80
2019-02-18T09:15:25.842Z,4.50
2019-02-18T09:17:58.288Z,3.80
2019-02-18T09:20:30.787Z,3.10
2019-02-18T09:23:15.246Z,3.20
2019-02-18T09:25:49.765Z,3.40
2019-02-18T09:28:22.249Z,3.67
2019-02-18T09:30:54.797Z,9.07
2019-02-18T09:33:27.227Z,2.70
2019-02-18T09:35:59.769Z,3.27
2019-02-18T09:38:32.348Z,3.00
2019-02-18T09:41:05.745Z,2.70
2019-02-18T09:43:38.223Z,2.33
2019-02-18T09:46:10.794Z,2.53
2019-02-18T09:48:43.155Z,2.30
2019-02-18T09:51:15.539Z,3.27
2019-02-18T09:53:48.018Z,3.07
2019-02-18T09:56:20.421Z,3.13
2019-02-18T09:58:52.772Z,3.50
2019-02-18T10:01:25.292Z,3.63
2019-02-18T10:03:57.865Z,4.80
2019-02-18T10:06:30.347Z,4.17
2019-02-18T10:09:05.387Z,3.23
2019-02-18T10:11:40.140Z,4.07
2019-02-18T10:14:12.509Z,4.37
2019-02-18T10:16:44.913Z,4.00
2019-02-18T10:19:19.269Z,3.57
2019-02-18T10:21:51.852Z,3.50
2019-02-18T10:24:25.720Z,3.50
2019-02-18T10:27:00.996Z,3.20
2019-02-18T10:29:33.416Z,3.80
2019-02-18T10:32:05.856Z,3.43
2019-02-18T10:34:42.168Z,3.70
2019-02-18T10:37:14.688Z,3.23
2019-02-18T10:39:47.657Z,3.10
2019-02-18T10:42:20.159Z,3.10
2019-02-18T10:44:54.688Z,2.73
2019-02-18T10:47:27.454Z,2.80
2019-02-18T10:49:59.827Z,2.83
2019-02-18T10:52:32.199Z,3.80
2019-02-18T10:55:04.450Z,3.43
2019-02-18T10:57:36.794Z,2.53
2019-02-18T11:00:18.980Z,3.17
2019-02-18T11:02:51.418Z,2.47
2019-02-18T11:05:23.873Z,1.63
2019-02-18T11:07:56.270Z,1.80
2019-02-18T11:10:29.983Z,2.00
2019-02-18T11:13:02.619Z,1.60
2019-02-18T11:15:35.431Z,1.80
2019-02-18T11:18:07.893Z,1.60
2019-02-18T11:20:40.290Z,1.97
2019-02-18T11:23:12.767Z,1.80
2019-02-18T11:25:45.244Z,2.20
2019-02-18T11:28:17.704Z,2.00
2019-02-18T11:30:50.278Z,2.87
2019-02-18T11:33:22.858Z,2.13
2019-02-18T11:35:55.350Z,1.80
2019-02-18T11:38:32.212Z,1.87
2019-02-18T11:41:05.203Z,1.17
2019-02-18T11:43:37.570Z,1.40
2019-02-18T11:46:10.048Z,1.70
2019-02-18T11:48:44.775Z,1.40
2019-02-18T11:51:17.350Z,1.57
2019-02-18T11:53:52.186Z,1.63
2019-02-18T11:56:24.763Z,1.60
2019-02-18T11:58:59.589Z,2.60
2019-02-18T12:01:31.891Z,2.00
2019-02-18T12:04:04.847Z,1.50
2019-02-18T12:06:40.089Z,1.77
2019-02-18T12:09:14.101Z,3.10
2019-02-18T12:11:47.595Z,2.13
2019-02-18T12:14:20.181Z,1.70
2019-02-18T12:16:55.004Z,1.70
2019-02-18T12:19:27.684Z,2.00
2019-02-18T12:22:00.567Z,1.57
2019-02-18T12:24:33.069Z,2.03
2019-02-18T12:27:06.132Z,1.90
2019-02-18T12:29:38.501Z,1.70
2019-02-18T12:32:10.986Z,3.07
2019-02-18T12:34:43.560Z,1.60
2019-02-18T12:37:16.180Z,1.73
2019-02-18T12:39:49.042Z,1.73
2019-02-18T12:42:21.594Z,2.97
2019-02-18T12:44:54.584Z,1.70
2019-02-18T12:47:27.160Z,2.20
2019-02-18T12:50:00.567Z,2.37
2019-02-18T12:52:33.035Z,1.87
2019-02-18T12:55:06.597Z,1.73
2019-02-18T12:57:39.319Z,2.40
2019-02-18T13:00:18.288Z,2.03
2019-02-18T13:02:50.966Z,2.63
2019-02-18T13:05:23.387Z,1.60
2019-02-18T13:07:55.794Z,1.73
2019-02-18T13:10:34.616Z,2.37
2019-02-18T13:13:02.796Z,2.37
2019-02-18T13:15:35.341Z,1.40
2019-02-18T13:18:09.364Z,1.80
2019-02-18T13:20:41.869Z,3.23
2019-02-18T13:23:14.719Z,1.30
2019-02-18T13:25:47.829Z,1.43
2019-02-18T13:28:20.581Z,2.40
2019-02-18T13:30:53.268Z,1.20
2019-02-18T13:33:25.843Z,1.50
2019-02-18T13:35:58.518Z,2.77
2019-02-18T13:38:30.997Z,1.40
2019-02-18T13:41:03.574Z,1.80
2019-02-18T13:43:36.151Z,1.70
2019-02-18T13:46:08.746Z,1.17
2019-02-18T13:48:42.948Z,2.00
2019-02-18T13:51:15.319Z,2.73
2019-02-18T13:53:47.809Z,1.40
2019-02-18T13:56:20.273Z,1.97
2019-02-18T13:58:53.472Z,1.40
2019-02-18T14:01:25.764Z,1.40
2019-02-18T14:03:58.304Z,1.43
2019-02-18T14:06:30.882Z,1.40
2019-02-18T14:09:05.205Z,1.30
2019-02-18T14:11:39.011Z,1.50
2019-02-18T14:14:12.626Z,1.50
2019-02-18T14:16:45.499Z,1.73
2019-02-18T14:19:19.300Z,2.10
2019-02-18T14:21:52.937Z,1.50
2019-02-18T14:24:25.358Z,1.80
2019-02-18T14:26:57.857Z,2.47
2019-02-18T14:29:30.432Z,1.73
2019-02-18T14:32:04.283Z,2.73
2019-02-18T14:34:36.552Z,1.50
2019-02-18T14:37:09.088Z,2.77
2019-02-18T14:39:41.870Z,1.70
2019-02-18T14:42:14.135Z,2.00
2019-02-18T14:44:46.936Z,2.50
2019-02-18T14:47:19.804Z,2.67
2019-02-18T14:49:54.022Z,2.50
2019-02-18T14:52:26.715Z,3.17
2019-02-18T14:54:59.069Z,3.67
2019-02-18T14:57:34.315Z,1.80
2019-02-18T15:00:08.124Z,2.73
2019-02-18T15:02:41.103Z,3.60
2019-02-18T15:05:13.989Z,5.63
2019-02-18T15:07:47.903Z,3.63
2019-02-18T15:10:23.342Z,2.77
2019-02-18T15:12:56.169Z,2.90
2019-02-18T15:15:28.811Z,3.70
2019-02-18T15:18:01.686Z,2.50
2019-02-18T15:20:35.532Z,3.90
2019-02-18T15:23:07.969Z,3.07
2019-02-18T15:25:43.120Z,4.00
2019-02-18T15:28:15.560Z,3.63
2019-02-18T15:30:49.284Z,3.50
2019-02-18T15:33:21.706Z,2.87
2019-02-18T15:35:55.837Z,4.33
2019-02-18T15:38:28.356Z,4.40
2019-02-18T15:41:01.128Z,5.27
2019-02-18T15:43:33.685Z,5.23
2019-02-18T15:46:06.284Z,4.33
2019-02-18T15:48:38.760Z,4.83
2019-02-18T15:51:12.872Z,4.53
2019-02-18T15:53:45.448Z,4.57
2019-02-18T15:56:18.130Z,4.50
2019-02-18T15:58:50.705Z,4.93
2019-02-18T16:01:24.376Z,5.10
2019-02-18T16:03:57.198Z,4.87
2019-02-18T16:06:29.768Z,5.53
2019-02-18T16:09:04.414Z,4.53
2019-02-18T16:11:38.745Z,4.80
2019-02-18T16:14:11.202Z,5.67
2019-02-18T16:16:45.346Z,4.47
2019-02-18T16:19:18.390Z,5.87
2019-02-18T16:21:50.971Z,3.57
2019-02-18T16:24:25.872Z,3.67
2019-02-18T16:26:58.588Z,3.40
2019-02-18T16:29:31.062Z,3.37
2019-02-18T16:32:03.636Z,7.03
2019-02-18T16:34:38.342Z,5.73
2019-02-18T16:37:11.544Z,5.33
2019-02-18T16:39:45.108Z,5.43
2019-02-18T16:42:17.628Z,5.80
2019-02-18T16:44:50.106Z,5.67
2019-02-18T16:47:24.176Z,4.90
2019-02-18T16:49:58.745Z,6.97
2019-02-18T16:52:31.217Z,5.77
2019-02-18T16:55:03.513Z,5.87
2019-02-18T16:57:38.186Z,5.23
2019-02-18T17:00:14.967Z,5.10
2019-02-18T17:02:47.664Z,5.00
2019-02-18T17:05:20.203Z,5.93
2019-02-18T17:07:52.762Z,6.70
2019-02-18T17:10:25.303Z,7.00
2019-02-18T17:12:57.878Z,5.60
2019-02-18T17:15:30.147Z,6.50
2019-02-18T17:18:03.748Z,6.93
2019-02-18T17:20:36.534Z,5.53
2019-02-18T17:23:09.355Z,5.27
2019-02-18T17:25:41.787Z,5.30
2019-02-18T17:28:14.549Z,5.33
2019-02-18T17:30:46.993Z,5.20
2019-02-18T17:33:20.748Z,6.87
2019-02-18T17:35:57.219Z,6.17
2019-02-18T17:38:29.897Z,6.00
2019-02-18T17:41:05.251Z,5.63
2019-02-18T17:43:37.836Z,5.83
2019-02-18T17:46:11.829Z,5.70
2019-02-18T17:48:44.820Z,6.80
2019-02-18T17:51:17.194Z,5.73
2019-02-18T17:53:49.765Z,5.30
2019-02-18T17:56:22.684Z,5.53
2019-02-18T17:58:55.445Z,6.20
2019-02-18T18:01:28.103Z,4.47
2019-02-18T18:04:00.679Z,4.80
2019-02-18T18:06:33.254Z,8.30
2019-02-18T18:09:05.555Z,19.97
2019-02-18T18:11:37.882Z,8.80
2019-02-18T18:14:10.275Z,6.70
2019-02-18T18:16:42.757Z,8.93
2019-02-18T18:19:16.468Z,10.20
2019-02-18T18:21:49.440Z,6.93
2019-02-18T18:24:22.115Z,5.80
2019-02-18T18:26:54.497Z,5.27
2019-02-18T18:29:27.221Z,4.90
2019-02-18T18:31:59.564Z,5.70
2019-02-18T18:34:32.328Z,4.90
2019-02-18T18:37:04.570Z,5.13
2019-02-18T18:39:36.965Z,5.43
2019-02-18T18:42:09.546Z,5.20
2019-02-18T18:44:42.121Z,4.30
2019-02-18T18:47:15.213Z,4.57
2019-02-18T18:49:47.769Z,4.17
2019-02-18T18:52:20.062Z,4.60
2019-02-18T18:54:52.769Z,4.67
2019-02-18T18:57:25.725Z,5.47
2019-02-18T18:59:58.306Z,5.00
2019-02-18T19:02:30.988Z,5.40
2019-02-18T19:05:03.429Z,5.30
2019-02-18T19:07:36.338Z,5.10
2019-02-18T19:10:13.462Z,4.80
2019-02-18T19:12:46.043Z,4.90
2019-02-18T19:15:20.404Z,5.37
2019-02-18T19:17:54.527Z,4.73
2019-02-18T19:20:30.803Z,4.70
2019-02-18T19:23:03.485Z,4.50
2019-02-18T19:25:36.471Z,4.97
2019-02-18T19:28:08.941Z,5.43
2019-02-18T19:30:42.654Z,5.13
2019-02-18T19:33:16.256Z,4.83
2019-02-18T19:35:49.034Z,5.07
2019-02-18T19:38:21.596Z,4.97
2019-02-18T19:40:54.653Z,5.00
2019-02-18T19:43:27.120Z,4.90
2019-02-18T19:45:59.958Z,4.93
2019-02-18T19:48:32.740Z,5.27
2019-02-18T19:51:07.365Z,4.80
2019-02-18T19:53:40.333Z,5.00
2019-02-18T19:56:13.858Z,5.67
2019-02-18T19:58:47.020Z,5.90
2019-02-18T20:01:21.882Z,5.73
2019-02-18T20:03:56.413Z,5.20
2019-02-18T20:06:30.205Z,5.50
2019-02-18T20:09:05.848Z,4.80
2019-02-18T20:11:40.828Z,4.77
2019-02-18T20:14:15.101Z,4.93
2019-02-18T20:16:48.906Z,3.70
2019-02-18T20:19:23.120Z,4.40
2019-02-18T20:22:02.770Z,4.73
2019-02-18T20:24:39.540Z,4.43
2019-02-18T20:27:14.370Z,5.00
2019-02-18T20:29:48.583Z,4.67
2019-02-18T20:32:22.106Z,4.80
2019-02-18T20:35:01.851Z,4.27
2019-02-18T20:37:39.736Z,4.83
2019-02-18T20:40:16.000Z,4.77
2019-02-18T20:42:50.825Z,5.37
2019-02-18T20:45:24.557Z,5.00
2019-02-18T20:47:57.832Z,5.20
2019-02-18T20:50:31.836Z,4.60
2019-02-18T20:53:05.951Z,4.73
2019-02-18T20:55:39.487Z,5.03
2019-02-18T20:58:13.692Z,4.63
2019-02-18T21:00:49.742Z,4.70
2019-02-18T21:03:23.354Z,4.87
2019-02-18T21:05:57.697Z,4.60
2019-02-18T21:08:31.091Z,4.80
2019-02-18T21:11:04.472Z,4.77
2019-02-18T21:13:37.778Z,4.27
2019-02-18T21:16:11.317Z,5.00
2019-02-18T21:18:44.932Z,4.60
2019-02-18T21:21:18.092Z,4.83
2019-02-18T21:23:51.627Z,4.93
2019-02-18T21:26:24.718Z,4.77
2019-02-18T21:28:58.007Z,4.80
2019-02-18T21:31:31.099Z,5.13
2019-02-18T21:34:03.793Z,5.93
2019-02-18T21:36:36.870Z,6.23
2019-02-18T21:39:12.616Z,5.10
2019-02-18T21:41:45.911Z,5.47
2019-02-18T21:44:24.940Z,5.10
2019-02-18T21:46:52.606Z,7.57
2019-02-18T21:49:24.941Z,5.53
2019-02-18T21:51:57.267Z,4.87
2019-02-18T21:54:29.721Z,4.67
2019-02-18T21:57:02.191Z,4.27
2019-02-18T21:59:34.978Z,4.17
2019-02-18T22:05:03.260Z,4.00
2019-02-18T22:07:36.039Z,4.13
2019-02-18T22:10:09.028Z,4.40
2019-02-18T22:12:41.479Z,4.70
2019-02-18T22:15:17.848Z,4.67
2019-02-18T22:17:50.239Z,4.40
2019-02-18T22:20:22.735Z,4.40
2019-02-18T22:22:55.068Z,4.00
2019-02-18T22:25:27.463Z,5.10
2019-02-18T22:28:00.036Z,4.00
2019-02-18T22:30:32.631Z,4.30
2019-02-18T22:33:05.091Z,4.07
2019-02-18T22:35:37.624Z,4.40
2019-02-18T22:38:09.884Z,4.30
2019-02-18T22:40:42.309Z,3.90
2019-02-18T22:43:14.734Z,4.37
2019-02-18T22:45:47.013Z,4.20
2019-02-18T22:48:19.561Z,4.10
2019-02-18T22:50:52.026Z,4.10
2019-02-18T22:53:24.340Z,4.13
2019-02-18T22:55:56.857Z,4.10
2019-02-18T22:58:29.536Z,3.67
2019-02-18T23:01:02.931Z,3.53
2019-02-18T23:03:36.021Z,3.40
2019-02-18T23:06:08.452Z,3.47
2019-02-18T23:08:40.971Z,3.00
2019-02-18T23:11:13.442Z,2.70
2019-02-18T23:13:46.023Z,2.93
2019-02-18T23:16:18.495Z,2.73
2019-02-18T23:18:50.951Z,2.90
2019-02-18T23:21:23.450Z,2.73
2019-02-18T23:23:56.022Z,2.60
2019-02-18T23:26:28.601Z,2.97
2019-02-18T23:29:01.056Z,3.17
2019-02-18T23:31:33.551Z,2.97
2019-02-18T23:34:06.439Z,3.53
2019-02-18T23:36:38.912Z,3.00
2019-02-18T23:39:11.507Z,3.10
2019-02-18T23:41:44.064Z,3.33
2019-02-18T23:44:16.643Z,3.03
2019-02-18T23:46:50.140Z,3.93
2019-02-18T23:49:22.665Z,3.50
2019-02-18T23:51:55.192Z,3.40
2019-02-18T23:54:27.596Z,3.63
2019-02-18T23:57:01.066Z,3.67
2019-02-18T23:59:33.640Z,3.63
